Time;durP1;ratioP1;P1;durP2;ratioP2;P2;SDS_P1;SDS_P2;PMS_P1;PMS_P2;Temp;Humidity;BMP_temperature;BMP_pressure;BME280_temperature;BME280_humidity;BME280_pressure;Samples;Min_cycle;Max_cycle;Signal;HPM_P1;HPM_P2
2024/01/07 00:00:51;;;;;;;8.60;3.65;;;;;;;-2.11;100.00;101620.66;7348334;19;20198;-43
2024/01/07 00:03:21;;;;;;;55.28;15.65;;;;;;;-2.07;100.00;101622.75;7329818;19;20194;-44
2024/01/07 00:05:51;;;;;;;81.45;23.48;;;;;;;-2.00;100.00;101624.31;7349516;19;20237;-44
2024/01/07 00:08:21;;;;;;;12.85;5.30;;;;;;;-2.11;100.00;101629.13;7328653;19;20270;-46
2024/01/07 00:10:50;;;;;;;8.13;2.40;;;;;;;-2.28;100.00;101641.56;7348367;19;20202;-47
2024/01/07 00:13:22;;;;;;;8.82;3.40;;;;;;;-2.45;100.00;101645.72;7328195;19;20198;-46
2024/01/07 00:15:55;;;;;;;78.43;25.33;;;;;;;-2.29;100.00;101643.22;7350139;19;20687;-46
2024/01/07 00:18:26;;;;;;;12.13;3.20;;;;;;;-2.17;100.00;101648.69;7327460;19;20249;-44
2024/01/07 00:20:56;;;;;;;5.25;2.85;;;;;;;-2.34;100.00;101657.00;7350439;19;20711;-44
2024/01/07 00:23:26;;;;;;;14.63;4.75;;;;;;;-2.35;100.00;101652.69;7328689;19;20261;-47
2024/01/07 00:25:56;;;;;;;18.88;4.43;;;;;;;-2.41;100.00;101652.00;7350023;19;20202;-46
2024/01/07 00:28:25;;;;;;;51.58;18.85;;;;;;;-2.36;100.00;101650.88;7326445;19;20614;-44
2024/01/07 00:30:57;;;;;;;8.55;3.35;;;;;;;-2.35;100.00;101656.09;7348443;19;20243;-47
2024/01/07 00:33:27;;;;;;;4.55;1.95;;;;;;;-2.47;100.00;101657.28;7327885;19;20194;-46
2024/01/07 00:35:58;;;;;;;9.70;2.50;;;;;;;-2.49;100.00;101664.72;7350054;19;20285;-45
2024/01/07 00:38:27;;;;;;;16.40;4.85;;;;;;;-2.33;100.00;101657.16;7326728;19;20537;-45
2024/01/07 00:40:57;;;;;;;8.70;3.05;;;;;;;-2.58;100.00;101669.66;7349064;19;20250;-48
2024/01/07 00:43:26;;;;;;;24.30;6.63;;;;;;;-2.58;100.00;101662.09;7326744;19;20559;-44
2024/01/07 00:45:59;;;;;;;14.30;5.28;;;;;;;-2.51;100.00;101667.81;7348072;19;20583;-46
2024/01/07 00:48:28;;;;;;;4.70;2.28;;;;;;;-2.56;100.00;101671.47;7326068;19;20247;-44
2024/01/07 00:50:58;;;;;;;14.68;5.90;;;;;;;-2.49;100.00;101674.84;7347500;19;20565;-42
2024/01/07 00:53:28;;;;;;;11.40;4.55;;;;;;;-2.50;100.00;101677.19;7347806;19;20277;-44
2024/01/07 00:55:57;;;;;;;33.30;10.18;;;;;;;-2.53;100.00;101676.84;7348263;19;20206;-45
2024/01/07 00:58:27;;;;;;;7.50;1.80;;;;;;;-2.54;100.00;101682.63;7325913;19;20198;-44
2024/01/07 01:01:00;;;;;;;21.55;6.85;;;;;;;-2.46;100.00;101685.25;7346320;19;20257;-48
2024/01/07 01:03:29;;;;;;;81.75;23.15;;;;;;;-2.39;100.00;101685.94;7326274;19;20190;-45
2024/01/07 01:05:59;;;;;;;15.90;6.13;;;;;;;-2.49;100.00;101691.63;7334020;19;20206;-45
2024/01/07 01:08:29;;;;;;;15.23;4.53;;;;;;;-2.46;100.00;101684.38;7346310;19;20206;-44
2024/01/07 01:10:58;;;;;;;7.13;3.20;;;;;;;-2.38;100.00;101688.63;7342398;19;20198;-44
2024/01/07 01:13:28;;;;;;;28.85;11.13;;;;;;;-2.24;100.00;101686.69;7346424;19;20215;-47
2024/01/07 01:16:00;;;;;;;19.77;6.60;;;;;;;-2.43;100.00;101688.88;7347706;19;20278;-44
2024/01/07 01:18:30;;;;;;;21.02;5.15;;;;;;;-2.54;100.00;101695.25;7325086;19;20194;-48
2024/01/07 01:20:59;;;;;;;4.85;2.13;;;;;;;-2.50;100.00;101684.78;7332468;19;20198;-45
2024/01/07 01:23:29;;;;;;;15.77;5.60;;;;;;;-2.55;100.00;101703.59;7348150;19;20194;-44
2024/01/07 01:25:58;;;;;;;5.95;2.70;;;;;;;-2.52;100.00;101709.88;7348920;19;20208;-45
2024/01/07 01:28:28;;;;;;;12.27;4.40;;;;;;;-2.39;100.00;101707.06;7354058;19;20205;-44
2024/01/07 01:31:00;;;;;;;5.30;2.58;;;;;;;-2.48;100.00;101709.47;7354383;19;20261;-44
2024/01/07 01:33:30;;;;;;;10.35;4.60;;;;;;;-2.52;100.00;101719.97;7332348;19;20232;-45
2024/01/07 01:35:59;;;;;;;8.57;3.00;;;;;;;-2.45;100.00;101714.84;7336080;19;20206;-45
2024/01/07 01:38:29;;;;;;;19.25;6.70;;;;;;;-2.36;100.00;101709.91;7352639;19;20198;-45
2024/01/07 01:40:59;;;;;;;19.92;6.53;;;;;;;-2.39;100.00;101722.22;7345783;19;20633;-45
2024/01/07 01:43:29;;;;;;;81.63;23.33;;;;;;;-2.38;100.00;101721.50;7353956;19;20215;-46
2024/01/07 01:46:01;;;;;;;33.33;9.85;;;;;;;-2.27;100.00;101721.78;7346199;19;20269;-42
2024/01/07 01:48:32;;;;;;;19.45;5.38;;;;;;;-2.38;100.00;101733.22;7353381;19;20208;-46
2024/01/07 01:51:02;;;;;;;4.50;2.45;;;;;;;-2.39;100.00;101731.44;7331955;19;20194;-45
2024/01/07 01:53:32;;;;;;;53.72;15.35;;;;;;;-2.23;100.00;101732.38;7352618;19;20287;-45
2024/01/07 01:56:03;;;;;;;7.13;2.85;;;;;;;-2.10;100.00;101737.13;7332217;19;20281;-48
2024/01/07 01:58:33;;;;;;;19.38;6.28;;;;;;;-2.07;100.00;101736.56;7352877;19;20273;-44
2024/01/07 02:01:06;;;;;;;11.02;3.80;;;;;;;-2.16;100.00;101744.06;7329483;19;20198;-45
2024/01/07 02:03:36;;;;;;;17.98;3.35;;;;;;;-2.15;100.00;101748.41;7352348;19;20198;-45
2024/01/07 02:06:05;;;;;;;26.17;6.82;;;;;;;-2.10;100.00;101746.38;7331701;19;20219;-46
2024/01/07 02:08:35;;;;;;;4.05;2.25;;;;;;;-2.06;100.00;101754.44;7350997;19;20265;-44
2024/01/07 02:11:17;;;;;;;5.13;2.67;;;;;;;-2.00;100.00;101749.13;7331533;19;20194;-47
2024/01/07 02:13:47;;;;;;;34.55;10.15;;;;;;;-1.84;100.00;101751.69;7347519;19;20198;-45
2024/01/07 02:16:19;;;;;;;9.70;3.88;;;;;;;-1.90;100.00;101762.06;7331215;19;20266;-47
2024/01/07 02:18:49;;;;;;;4.13;2.15;;;;;;;-1.94;100.00;101764.09;7352091;19;20568;-45
2024/01/07 02:21:18;;;;;;;24.90;7.28;;;;;;;-1.85;100.00;101771.78;7332106;19;20270;-45
2024/01/07 02:23:48;;;;;;;7.88;3.05;;;;;;;-1.86;100.00;101777.59;7352213;19;20208;-46
2024/01/07 02:26:20;;;;;;;105.47;27.50;;;;;;;-1.70;100.00;101772.56;7331977;19;20214;-46
2024/01/07 02:28:50;;;;;;;9.50;3.10;;;;;;;-1.73;100.00;101770.59;7351681;19;20201;-44
2024/01/07 02:31:19;;;;;;;4.10;1.90;;;;;;;-1.83;100.00;101777.91;7332135;19;20198;-45
2024/01/07 02:33:49;;;;;;;5.13;1.88;;;;;;;-1.85;100.00;101777.72;7351515;19;20194;-45
2024/01/07 02:36:19;;;;;;;14.57;4.43;;;;;;;-1.81;100.00;101779.88;7331820;19;20278;-45
2024/01/07 02:38:48;;;;;;;14.98;5.03;;;;;;;-1.75;100.00;101788.88;7351621;19;20206;-44
2024/01/07 02:41:25;;;;;;;6.38;1.80;;;;;;;-1.73;100.00;101789.91;7331392;19;20257;-47
2024/01/07 02:43:55;;;;;;;8.48;3.47;;;;;;;-1.78;100.00;101792.84;7351787;19;20644;-45
2024/01/07 02:46:26;;;;;;;9.32;2.67;;;;;;;-1.85;100.00;101802.16;7331653;19;20286;-45
2024/01/07 02:48:56;;;;;;;5.25;2.00;;;;;;;-1.84;100.00;101797.25;7351503;19;20194;-47
2024/01/07 02:51:26;;;;;;;7.32;3.55;;;;;;;-1.79;100.00;101806.22;7329969;19;20302;-47
2024/01/07 02:53:55;;;;;;;5.78;2.80;;;;;;;-1.70;100.00;101813.03;7351602;19;20212;-45
2024/01/07 02:56:27;;;;;;;17.33;5.65;;;;;;;-1.68;100.00;101806.50;7331526;19;20198;-46
2024/01/07 02:58:57;;;;;;;13.07;5.20;;;;;;;-1.55;100.00;101812.16;7351106;19;20203;-47
2024/01/07 03:01:27;;;;;;;18.23;5.68;;;;;;;-1.55;100.00;101817.22;7327863;19;20194;-45
2024/01/07 03:03:56;;;;;;;8.40;3.55;;;;;;;-1.58;100.00;101821.97;7351450;19;20935;-47
2024/01/07 03:06:29;;;;;;;25.13;7.35;;;;;;;-1.59;100.00;101820.13;7329288;19;20194;-47
2024/01/07 03:08:58;;;;;;;4.80;2.15;;;;;;;-1.56;100.00;101814.50;7347424;19;20202;-46
2024/01/07 03:11:31;;;;;;;5.45;2.30;;;;;;;-1.57;100.00;101817.78;7350218;19;20198;-47
2024/01/07 03:14:00;;;;;;;8.15;2.60;;;;;;;-1.66;100.00;101807.56;7329401;19;20197;-43
2024/01/07 03:16:30;;;;;;;25.42;9.18;;;;;;;-1.66;100.00;101817.69;7350343;19;20210;-48
2024/01/07 03:18:59;;;;;;;13.07;2.53;;;;;;;-1.59;100.00;101822.66;7337853;19;20281;-44
2024/01/07 03:21:29;;;;;;;12.45;4.60;;;;;;;-1.64;100.00;101827.25;7350205;19;20618;-46
2024/01/07 03:23:59;;;;;;;7.88;3.28;;;;;;;-1.63;100.00;101818.91;7343393;19;20735;-45
2024/01/07 03:26:32;;;;;;;13.27;4.97;;;;;;;-1.50;100.00;101822.75;7350179;19;20202;-44
2024/01/07 03:29:02;;;;;;;29.55;10.68;;;;;;;-1.46;100.00;101842.63;7328840;19;20732;-46
2024/01/07 03:31:32;;;;;;;9.07;3.00;;;;;;;-1.45;100.00;101841.00;7349869;19;20194;-45
2024/01/07 03:34:01;;;;;;;33.72;10.55;;;;;;;-1.35;100.00;101828.56;7328187;19;20198;-46
2024/01/07 03:36:31;;;;;;;14.15;5.57;;;;;;;-1.37;100.00;101843.59;7348806;19;20202;-45
2024/01/07 03:39:01;;;;;;;5.00;1.98;;;;;;;-1.48;100.00;101839.03;7328143;19;20215;-47
2024/01/07 03:41:33;;;;;;;11.77;3.90;;;;;;;-1.45;100.00;101849.47;7349396;19;20210;-46
2024/01/07 03:44:03;;;;;;;5.53;2.08;;;;;;;-1.29;100.00;101846.06;7328283;19;20190;-48
2024/01/07 03:46:32;;;;;;;6.32;2.30;;;;;;;-1.39;100.00;101849.25;7348724;19;20198;-45
2024/01/07 03:49:02;;;;;;;14.52;4.43;;;;;;;-1.38;100.00;101851.94;7328379;19;20232;-47
2024/01/07 03:51:32;;;;;;;3.63;1.50;;;;;;;-1.39;100.00;101860.28;7348897;19;20584;-47
2024/01/07 03:54:02;;;;;;;11.13;3.58;;;;;;;-1.44;100.00;101860.53;7328130;19;20202;-47
2024/01/07 03:56:34;;;;;;;9.10;3.22;;;;;;;-1.36;100.00;101868.22;7349121;19;20202;-45
2024/01/07 03:59:03;;;;;;;5.80;2.10;;;;;;;-1.31;100.00;101866.16;7327764;19;20730;-49
2024/01/07 04:01:33;;;;;;;4.28;1.50;;;;;;;-1.43;100.00;101872.44;7347756;19;20210;-45
2024/01/07 04:04:03;;;;;;;3.45;1.42;;;;;;;-1.41;100.00;101870.97;7328118;19;20671;-45
2024/01/07 04:06:32;;;;;;;6.30;1.95;;;;;;;-1.37;100.00;101875.63;7349192;19;20194;-44
2024/01/07 04:09:03;;;;;;;5.82;2.67;;;;;;;-1.27;100.00;101877.53;7327525;19;20198;-47
2024/01/07 04:11:35;;;;;;;2.92;1.63;;;;;;;-1.30;100.00;101875.56;7348889;19;20560;-44
2024/01/07 04:14:04;;;;;;;8.48;2.38;;;;;;;-1.35;100.00;101876.69;7326655;19;20190;-45
2024/01/07 04:16:34;;;;;;;2.25;1.08;;;;;;;-1.32;100.00;101892.22;7348342;19;20206;-47
2024/01/07 04:19:04;;;;;;;4.32;1.90;;;;;;;-1.34;100.00;101896.22;7327032;19;20277;-46
2024/01/07 04:21:34;;;;;;;3.63;1.55;;;;;;;-1.30;100.00;101898.34;7348247;19;20200;-44
2024/01/07 04:24:03;;;;;;;4.63;2.08;;;;;;;-1.20;100.00;101901.84;7326953;19;20190;-45
2024/01/07 04:26:35;;;;;;;19.08;7.40;;;;;;;-1.23;100.00;101899.94;7347996;19;20207;-50
2024/01/07 04:29:06;;;;;;;8.38;2.13;;;;;;;-1.22;100.00;101911.84;7326654;19;20205;-49
2024/01/07 04:31:36;;;;;;;7.95;2.88;;;;;;;-1.22;100.00;101914.38;7348078;19;20265;-47
2024/01/07 04:34:05;;;;;;;4.50;1.40;;;;;;;-1.23;100.00;101903.34;7326804;19;20198;-46
2024/01/07 04:36:35;;;;;;;13.02;4.43;;;;;;;-1.25;100.00;101904.81;7348116;19;20559;-45
2024/01/07 04:39:05;;;;;;;4.95;1.83;;;;;;;-1.31;100.00;101909.22;7326822;19;20198;-47
2024/01/07 04:41:37;;;;;;;9.30;2.95;;;;;;;-1.30;100.00;101910.09;7347831;19;20640;-47
2024/01/07 04:44:07;;;;;;;4.63;1.80;;;;;;;-1.32;100.00;101916.63;7327056;19;20190;-46
2024/01/07 04:46:37;;;;;;;4.32;1.65;;;;;;;-1.35;100.00;101919.75;7347702;19;20270;-48
2024/01/07 04:49:06;;;;;;;4.68;2.00;;;;;;;-1.24;100.00;101920.91;7325791;19;20194;-47
2024/01/07 04:51:36;;;;;;;7.05;2.70;;;;;;;-1.22;100.00;101922.88;7348157;19;20204;-46
2024/01/07 04:54:06;;;;;;;5.47;2.30;;;;;;;-1.16;100.00;101919.19;7325853;19;20238;-46
2024/01/07 04:56:38;;;;;;;7.50;2.60;;;;;;;-1.19;100.00;101923.94;7347391;19;20266;-46
2024/01/07 04:59:08;;;;;;;11.93;4.50;;;;;;;-1.12;100.00;101917.16;7329384;19;20668;-48
2024/01/07 05:01:37;;;;;;;6.22;2.13;;;;;;;-1.19;100.00;101926.47;7352561;19;20251;-47
2024/01/07 05:04:07;;;;;;;9.45;4.10;;;;;;;-1.23;100.00;101927.78;7333203;19;20704;-47
2024/01/07 05:06:37;;;;;;;5.05;1.90;;;;;;;-1.23;100.00;101941.34;7354003;19;20197;-47
2024/01/07 05:09:07;;;;;;;5.10;1.98;;;;;;;-1.39;100.00;101946.38;7333326;19;20225;-46
2024/01/07 05:11:42;;;;;;;10.40;2.35;;;;;;;-1.47;100.00;101948.78;7353942;19;20250;-47
2024/01/07 05:14:11;;;;;;;12.13;3.38;;;;;;;-1.32;100.00;101952.09;7332404;19;20280;-48
2024/01/07 05:16:41;;;;;;;2.72;1.52;;;;;;;-1.39;100.00;101956.50;7353714;19;20269;-48
2024/01/07 05:19:11;;;;;;;2.97;1.35;;;;;;;-1.39;100.00;101963.22;7332689;19;20198;-49
2024/01/07 05:21:40;;;;;;;3.42;1.80;;;;;;;-1.25;100.00;101964.69;7354649;19;20928;-46
2024/01/07 05:24:10;;;;;;;5.30;1.75;;;;;;;-1.15;100.00;101964.06;7332772;19;20618;-46
2024/01/07 05:26:46;;;;;;;6.28;1.40;;;;;;;-1.18;100.00;101966.28;7353250;19;20194;-51
2024/01/07 05:29:16;;;;;;;7.03;2.58;;;;;;;-1.09;100.00;101967.25;7333013;19;20198;-47
2024/01/07 05:31:45;;;;;;;4.38;1.73;;;;;;;-1.09;100.00;101964.72;7353501;19;20194;-46
2024/01/07 05:34:15;;;;;;;7.57;2.40;;;;;;;-1.16;100.00;101980.00;7332356;19;20706;-45
2024/01/07 05:36:45;;;;;;;10.65;2.53;;;;;;;-1.18;100.00;101968.81;7352792;19;20201;-47
2024/01/07 05:39:15;;;;;;;3.95;2.15;;;;;;;-1.21;100.00;101976.97;7331637;19;20608;-45
2024/01/07 05:41:47;;;;;;;6.40;1.80;;;;;;;-1.41;100.00;101978.22;7353103;19;20194;-46
2024/01/07 05:44:16;;;;;;;6.03;1.65;;;;;;;-1.50;100.00;101983.19;7332528;19;20261;-45
2024/01/07 05:46:46;;;;;;;12.52;3.40;;;;;;;-1.29;100.00;101983.72;7353095;19;20194;-50
2024/01/07 05:49:16;;;;;;;4.60;1.95;;;;;;;-1.22;100.00;101983.66;7331603;19;20291;-45
2024/01/07 05:51:45;;;;;;;9.82;2.55;;;;;;;-1.14;100.00;101989.56;7353828;19;20237;-49
2024/01/07 05:54:15;;;;;;;5.70;2.20;;;;;;;-1.10;100.00;101988.25;7331831;19;20202;-48
2024/01/07 05:56:47;;;;;;;3.63;1.90;;;;;;;-1.12;100.00;101994.81;7352936;19;20190;-44
2024/01/07 05:59:17;;;;;;;3.70;1.73;;;;;;;-1.23;100.00;101997.06;7332046;19;20582;-48
2024/01/07 06:01:46;;;;;;;6.82;1.90;;;;;;;-1.06;100.00;101995.47;7351451;19;20218;-47
2024/01/07 06:04:16;;;;;;;7.60;2.25;;;;;;;-1.10;100.00;102000.94;7332079;19;20206;-45
2024/01/07 06:06:46;;;;;;;34.65;11.50;;;;;;;-1.09;100.00;102001.09;7352257;19;20201;-45
2024/01/07 06:09:20;;;;;;;5.20;2.42;;;;;;;-1.15;100.00;101999.50;7331035;19;20190;-47
2024/01/07 06:11:52;;;;;;;4.38;2.00;;;;;;;-1.32;100.00;101997.69;7352867;19;20205;-48
2024/01/07 06:14:22;;;;;;;4.32;2.33;;;;;;;-1.27;100.00;101997.44;7332230;19;20575;-48
2024/01/07 06:16:52;;;;;;;6.22;2.00;;;;;;;-1.47;100.00;102001.97;7352637;19;20198;-47
2024/01/07 06:19:22;;;;;;;5.43;2.00;;;;;;;-1.52;100.00;101998.94;7331499;19;20202;-48
2024/01/07 06:21:51;;;;;;;5.28;2.15;;;;;;;-1.53;100.00;101995.47;7351922;19;20206;-46
2024/01/07 06:24:21;;;;;;;9.20;3.65;;;;;;;-1.34;100.00;101994.09;7331812;19;20289;-46
2024/01/07 06:26:53;;;;;;;9.88;3.60;;;;;;;-1.40;100.00;102000.28;7352411;19;20194;-48
2024/01/07 06:29:23;;;;;;;4.70;2.30;;;;;;;-1.37;100.00;102003.13;7331306;19;20194;-47
2024/01/07 06:31:52;;;;;;;5.35;2.50;;;;;;;-1.37;100.00;101999.72;7351920;19;20198;-47
2024/01/07 06:34:23;;;;;;;13.65;5.43;;;;;;;-1.29;100.00;102003.97;7328973;19;20209;-48
2024/01/07 06:36:52;;;;;;;5.13;2.83;;;;;;;-1.41;100.00;101998.47;7350274;19;20218;-44
2024/01/07 06:39:22;;;;;;;8.20;3.38;;;;;;;-1.46;100.00;101986.94;7328828;19;20202;-45
2024/01/07 06:41:54;;;;;;;6.25;2.63;;;;;;;-1.47;100.00;101984.22;7349504;19;20198;-48
2024/01/07 06:44:24;;;;;;;7.88;3.33;;;;;;;-1.44;100.00;101998.13;7329215;19;20237;-46
2024/01/07 06:46:53;;;;;;;6.70;3.03;;;;;;;-1.27;100.00;101987.31;7349521;19;20706;-47
2024/01/07 06:49:23;;;;;;;16.42;5.72;;;;;;;-1.39;100.00;101986.00;7328127;19;20194;-47
2024/01/07 06:51:53;;;;;;;12.45;4.15;;;;;;;-1.29;100.00;101983.72;7349253;19;20261;-47
2024/01/07 06:54:22;;;;;;;7.95;3.78;;;;;;;-1.29;100.00;101983.72;7328170;19;20209;-46
2024/01/07 06:56:54;;;;;;;11.40;4.43;;;;;;;-1.32;100.00;101993.53;7348766;19;20265;-45
2024/01/07 06:59:24;;;;;;;9.85;4.32;;;;;;;-1.58;100.00;101994.09;7328311;19;20198;-46
2024/01/07 07:01:55;;;;;;;8.63;4.28;;;;;;;-1.43;100.00;101989.78;7346558;19;20203;-46
2024/01/07 07:04:25;;;;;;;10.23;3.30;;;;;;;-1.59;100.00;101992.28;7328274;19;20228;-46
2024/01/07 07:06:55;;;;;;;7.20;3.20;;;;;;;-1.65;100.00;102001.72;7348577;19;20194;-47
2024/01/07 07:09:25;;;;;;;14.40;4.60;;;;;;;-1.64;100.00;101995.94;7328348;19;20277;-45
2024/01/07 07:11:57;;;;;;;8.30;3.47;;;;;;;-1.59;100.00;102007.47;7348667;19;20198;-46
2024/01/07 07:14:27;;;;;;;5.00;2.70;;;;;;;-1.61;100.00;102008.03;7328121;19;20202;-50
2024/01/07 07:16:56;;;;;;;6.68;3.42;;;;;;;-1.71;100.00;102016.22;7348324;19;20190;-46
2024/01/07 07:19:26;;;;;;;10.23;5.78;;;;;;;-1.50;100.00;102020.25;7327486;19;20748;-47
2024/01/07 07:21:55;;;;;;;6.82;3.42;;;;;;;-1.59;100.00;102024.31;7346552;19;20204;-45
2024/01/07 07:24:25;;;;;;;9.48;4.20;;;;;;;-1.68;100.00;102024.16;7328145;19;20285;-47
2024/01/07 07:26:57;;;;;;;12.90;4.65;;;;;;;-1.78;100.00;102028.19;7348819;19;20194;-46
2024/01/07 07:29:27;;;;;;;8.60;3.10;;;;;;;-1.79;100.00;102022.97;7328483;19;20198;-44
2024/01/07 07:31:57;;;;;;;13.82;4.93;;;;;;;-1.80;100.00;102034.72;7209555;19;2715487;-45
2024/01/07 07:34:27;;;;;;;8.07;2.80;;;;;;;-1.89;100.00;102046.34;7330441;19;20206;-50
2024/01/07 07:36:56;;;;;;;13.80;4.82;;;;;;;-2.00;100.00;102041.72;7350415;19;20194;-44
2024/01/07 07:39:26;;;;;;;8.25;3.58;;;;;;;-1.90;100.00;102044.53;7329984;19;20223;-44
2024/01/07 07:41:58;;;;;;;5.65;2.85;;;;;;;-2.06;100.00;102055.47;7349686;19;20277;-46
2024/01/07 07:44:28;;;;;;;6.80;3.22;;;;;;;-2.24;100.00;102049.22;7329417;19;20202;-46
2024/01/07 07:46:57;;;;;;;8.43;4.00;;;;;;;-2.05;100.00;102054.72;7350551;19;20194;-45
2024/01/07 07:49:27;;;;;;;9.15;3.83;;;;;;;-2.11;100.00;102061.63;7328873;19;20190;-46
2024/01/07 07:51:58;;;;;;;26.35;11.40;;;;;;;-2.09;100.00;102066.84;7350507;19;20277;-44
2024/01/07 07:54:27;;;;;;;8.95;3.28;;;;;;;-2.18;100.00;102066.72;7329405;19;20205;-45
2024/01/07 07:57:00;;;;;;;19.10;6.22;;;;;;;-2.13;100.00;102065.63;7349129;19;20800;-44
2024/01/07 07:59:29;;;;;;;7.35;2.97;;;;;;;-2.19;100.00;102069.97;7326789;19;20207;-44
2024/01/07 08:01:59;;;;;;;7.75;3.17;;;;;;;-2.28;100.00;102077.41;7347058;19;20201;-40
2024/01/07 08:04:29;;;;;;;15.02;5.15;;;;;;;-2.23;100.00;102083.91;7350465;19;20220;-44
2024/01/07 08:07:00;;;;;;;7.97;3.20;;;;;;;-2.29;100.00;102087.34;7348701;19;20216;-40
2024/01/07 08:09:30;;;;;;;8.57;3.33;;;;;;;-2.28;100.00;102089.13;7349181;19;20768;-49
2024/01/07 08:12:02;;;;;;;8.38;3.00;;;;;;;-2.19;100.00;102095.25;7340748;19;20198;-47
2024/01/07 08:14:32;;;;;;;10.48;4.18;;;;;;;-2.27;100.00;102090.97;7348414;19;20597;-46
2024/01/07 08:17:03;;;;;;;7.38;2.95;;;;;;;-2.26;100.00;102092.75;7326405;19;20261;-44
2024/01/07 08:19:32;;;;;;;8.38;3.28;;;;;;;-2.11;100.00;102099.56;7346983;19;20212;-48
2024/01/07 08:22:02;;;;;;;11.50;4.88;;;;;;;-2.10;100.00;102100.47;7327122;19;20679;-47
2024/01/07 08:24:31;;;;;;;16.15;5.22;;;;;;;-2.06;100.00;102093.41;7346725;19;20580;-48
2024/01/07 08:27:05;;;;;;;11.65;4.80;;;;;;;-2.22;100.00;102099.94;7325078;19;20193;-46
2024/01/07 08:29:35;;;;;;;5.78;2.95;;;;;;;-2.24;100.00;102098.88;7344295;19;20200;-44
2024/01/07 08:32:05;;;;;;;16.02;5.80;;;;;;;-2.13;100.00;102108.63;7325976;19;20209;-47
2024/01/07 08:34:34;;;;;;;11.82;6.25;;;;;;;-2.20;100.00;102101.94;7354301;19;20202;-46
2024/01/07 08:37:04;;;;;;;8.50;3.42;;;;;;;-2.45;100.00;102115.91;7333432;19;20208;-44
2024/01/07 08:39:34;;;;;;;14.50;5.35;;;;;;;-2.39;100.00;102120.78;7353347;19;20609;-46
2024/01/07 08:42:07;;;;;;;14.38;4.72;;;;;;;-2.18;100.00;102119.81;7334115;19;20190;-43
2024/01/07 08:44:37;;;;;;;12.15;4.15;;;;;;;-2.59;100.00;102122.81;7354070;19;20210;-44
2024/01/07 08:47:07;;;;;;;62.20;22.75;;;;;;;-2.67;100.00;102130.22;7333543;19;20243;-48
2024/01/07 08:49:38;;;;;;;22.80;8.10;;;;;;;-2.67;100.00;102138.69;7353184;19;20194;-46
2024/01/07 08:52:08;;;;;;;15.82;5.75;;;;;;;-2.76;100.00;102135.09;7333593;19;20182;-46
2024/01/07 08:54:38;;;;;;;11.23;4.68;;;;;;;-2.61;100.00;102139.41;7354063;19;20208;-48
2024/01/07 08:57:10;;;;;;;10.52;4.70;;;;;;;-2.72;100.00;102148.25;7329368;19;20194;-45
2024/01/07 08:59:40;;;;;;;13.77;5.63;;;;;;;-2.75;100.00;102152.97;7354447;19;20258;-46
2024/01/07 09:02:09;;;;;;;19.45;5.95;;;;;;;-2.57;100.00;102160.88;7331120;19;20541;-44
2024/01/07 09:04:39;;;;;;;7.30;3.40;;;;;;;-2.73;100.00;102160.69;7353411;19;20683;-46
2024/01/07 09:07:09;;;;;;;6.20;3.00;;;;;;;-2.92;100.00;102163.56;7333586;19;20194;-47
2024/01/07 09:09:38;;;;;;;6.90;3.03;;;;;;;-3.05;100.00;102172.94;7350202;19;20186;-44
2024/01/07 09:12:11;;;;;;;6.40;3.95;;;;;;;-3.16;100.00;102171.66;7333734;19;20186;-42
2024/01/07 09:14:40;;;;;;;9.70;3.70;;;;;;;-3.24;100.00;102173.28;7354479;19;20249;-43
2024/01/07 09:17:10;;;;;;;12.77;4.22;;;;;;;-3.27;100.00;102170.41;7333617;19;20542;-42
2024/01/07 09:19:39;;;;;;;13.95;3.85;;;;;;;-3.18;100.00;102175.66;7355211;19;20190;-43
2024/01/07 09:22:11;;;;;;;9.95;3.90;;;;;;;-3.12;100.00;102187.38;7334412;19;20198;-43
2024/01/07 09:24:41;;;;;;;24.02;8.93;;;;;;;-2.89;100.00;102181.66;7353789;19;20679;-43
2024/01/07 09:27:14;;;;;;;19.20;7.00;;;;;;;-2.78;100.00;102184.56;7335071;19;20219;-43
2024/01/07 09:29:43;;;;;;;7.13;3.50;;;;;;;-2.79;100.00;102193.75;7348703;19;20222;-44
2024/01/07 09:32:13;;;;;;;8.95;3.88;;;;;;;-2.87;100.00;102195.34;7329427;19;20250;-43
2024/01/07 09:34:43;;;;;;;37.75;11.65;;;;;;;-2.67;100.00;102200.97;7352646;19;20211;-46
2024/01/07 09:37:13;;;;;;;11.85;3.88;;;;;;;-2.69;100.00;102205.84;7333282;19;20206;-46
2024/01/07 09:39:44;;;;;;;9.38;3.33;;;;;;;-2.43;100.00;102210.53;7355076;19;20202;-44
2024/01/07 09:42:18;;;;;;;5.25;2.28;;;;;;;-1.81;100.00;102201.56;7334321;19;20273;-43
2024/01/07 09:44:48;;;;;;;5.38;2.85;;;;;;;-0.30;100.00;102195.41;7351847;19;20194;-48
2024/01/07 09:47:18;;;;;;;14.00;5.43;;;;;;;-0.64;100.00;102196.75;7333620;19;20246;-44
2024/01/07 09:49:47;;;;;;;34.97;13.18;;;;;;;-0.65;100.00;102197.50;7353729;19;20265;-42
2024/01/07 09:52:17;;;;;;;24.60;7.78;;;;;;;-0.83;100.00;102200.72;7334169;19;20207;-45
2024/01/07 09:54:51;;;;;;;29.48;10.98;;;;;;;-0.83;100.00;102207.41;7353696;19;20206;-44
2024/01/07 09:57:23;;;;;;;22.58;9.10;;;;;;;0.28;100.00;102202.41;7333210;19;20187;-44
2024/01/07 09:59:53;;;;;;;21.88;8.63;;;;;;;-0.12;100.00;102226.94;7353857;19;20202;-46
2024/01/07 10:02:23;;;;;;;12.05;5.57;;;;;;;-0.52;100.00;102240.34;7333567;19;20194;-45
2024/01/07 10:04:52;;;;;;;14.95;5.65;;;;;;;-0.41;100.00;102250.94;7355561;19;20204;-44
2024/01/07 10:07:22;;;;;;;18.40;6.45;;;;;;;-0.23;100.00;102251.16;7334394;19;20585;-43
2024/01/07 10:09:53;;;;;;;10.27;4.28;;;;;;;-0.56;100.00;102269.53;7353640;19;20261;-43
2024/01/07 10:12:27;;;;;;;23.42;8.43;;;;;;;-0.59;100.00;102266.63;7334038;19;20588;-46
2024/01/07 10:14:57;;;;;;;26.38;9.43;;;;;;;-0.90;100.00;102271.72;7353857;19;20263;-45
2024/01/07 10:17:27;;;;;;;33.25;13.32;;;;;;;-0.65;100.00;102265.97;7332951;19;20208;-45
2024/01/07 10:19:58;;;;;;;42.15;13.88;;;;;;;-0.48;100.00;102268.75;7353819;19;20194;-42
2024/01/07 10:22:30;;;;;;;29.20;9.95;;;;;;;-0.45;100.00;102276.66;7333775;19;20198;-44
2024/01/07 10:24:59;;;;;;;6.85;3.50;;;;;;;-0.76;100.00;102288.50;7351038;19;20198;-39
2024/01/07 10:27:31;;;;;;;8.60;4.00;;;;;;;-0.62;100.00;102284.06;7354811;19;20215;-44
2024/01/07 10:30:01;;;;;;;8.93;4.55;;;;;;;-0.50;100.00;102287.97;7331760;19;20708;-41
2024/01/07 10:32:31;;;;;;;38.88;12.65;;;;;;;-0.69;100.00;102280.84;7352507;19;20258;-44
2024/01/07 10:35:05;;;;;;;9.77;4.68;;;;;;;-1.08;100.00;102288.28;7337707;19;20198;-44
2024/01/07 10:37:36;;;;;;;9.80;4.20;;;;;;;-1.51;100.00;102300.41;7354593;19;20201;-44
2024/01/07 10:40:07;;;;;;;22.85;9.13;;;;;;;-1.55;100.00;102288.09;7332805;19;20198;-43
2024/01/07 10:42:40;;;;;;;39.60;11.27;;;;;;;-1.80;100.00;102285.25;7352630;19;20193;-44
2024/01/07 10:45:10;;;;;;;11.00;4.15;;;;;;;-1.79;100.00;102286.19;7332102;19;20223;-43
2024/01/07 10:47:43;;;;;;;54.17;16.33;;;;;;;-1.59;100.00;102275.81;7351903;19;20285;-42
2024/01/07 10:50:14;;;;;;;34.38;11.48;;;;;;;-1.70;100.00;102266.97;7332684;19;20738;-44
2024/01/07 10:52:45;;;;;;;19.80;6.05;;;;;;;-1.66;100.00;102270.75;7352997;19;20194;-42
2024/01/07 10:55:16;;;;;;;19.05;4.88;;;;;;;-1.39;100.00;102269.63;7331661;19;20202;-42
2024/01/07 10:57:49;;;;;;;45.45;12.68;;;;;;;-1.55;100.00;102272.00;7351354;19;20222;-41
2024/01/07 11:00:21;;;;;;;58.75;17.48;;;;;;;-1.65;100.00;102270.03;7330307;19;20348;-43
2024/01/07 11:03:00;;;;;;;18.83;7.05;;;;;;;-1.73;100.00;102271.72;7352523;19;20225;-41
2024/01/07 11:05:34;;;;;;;9.55;3.38;;;;;;;-1.80;100.00;102276.78;7332590;19;20198;-42
2024/01/07 11:08:09;;;;;;;14.80;5.30;;;;;;;-1.60;100.00;102276.53;7330535;19;20201;-41
2024/01/07 11:10:44;;;;;;;18.23;6.32;;;;;;;-1.47;100.00;102281.41;7349277;19;20198;-44
2024/01/07 11:13:40;;;;;;;17.90;7.13;;;;;;;-1.54;100.00;102276.34;7329631;19;20724;-43
2024/01/07 11:16:12;;;;;;;12.60;4.53;;;;;;;-1.53;100.00;102275.63;7329990;19;20198;-42
2024/01/07 11:18:43;;;;;;;13.07;5.25;;;;;;;-1.33;100.00;102275.38;7350137;19;20197;-43
2024/01/07 11:21:13;;;;;;;80.82;24.10;;;;;;;-1.50;100.00;102276.88;7330968;19;20678;-43
2024/01/07 11:23:46;;;;;;;7.85;3.53;;;;;;;-1.47;100.00;102277.94;7350566;19;20194;-43
2024/01/07 11:26:15;;;;;;;72.45;20.88;;;;;;;-1.51;100.00;102272.56;7331047;19;20226;-42